Collista, Kentucky
Current Conditions -  °F | °C
As of 12:35 PM on Thursday 23 Oct 2014 (Local Time) from KSJS Reporting Station
Overcast Overcast  
Wind Chill: 53°   Ceiling: 3300
Heat Index: 53°   Visibility: 10mi
Dew Point: 43°   Wind: 8mph
Humidity: 68%   Direction: 70°ENE
Pressure: 30.22"   Gusts: NA
Location:  37.7639°N, 82.7875°W
Report Text: KSJS 231635Z AUTO 07007KT 10SM SCT024 OVC033 12/06 A3022 RMK AO2 T01170059
Loading
Personal Weather Stations






























Interactive Weather Map
Tropical Storm Tracking
New forecast layout! Learn more

10-Day Weather Forecast

Advertisements
Track Severe Weather on mobile